This is the latest recevied weather packets stored in our database for station/object N9VPV. If no packets are shown the sender has not sent any weather packets the latest 10 day(s).
| Time | Temp. | Humidity | Pressure | Rain* | Wind** | Luminosity | Snow |
|---|---|---|---|---|---|---|---|
| 1777624279 | 3.89° C | 76% | 1015.3 hPa | 0 mm | - | 0 W/m² | - |
| 1777623356 | 4.44° C | 75% | 1015.3 hPa | 0 mm | - | 0 W/m² | - |
| 1777622448 | 4.44° C | 75% | 1015.2 hPa | 0 mm | - | 0 W/m² | - |
| 1777621545 | 4.44° C | 74% | 1015.1 hPa | 0 mm | - | 0 W/m² | - |
| 1777620636 | 5° C | 74% | 1015.1 hPa | 0 mm | - | 0 W/m² | - |
| 1777619732 | 5.56° C | 73% | 1015.2 hPa | 0 mm | - | 0 W/m² | - |
| 1777618822 | 5.56° C | 71% | 1015.3 hPa | 0 mm | - | 0 W/m² | - |
| 1777617915 | 6.11° C | 70% | 1015.2 hPa | 0 mm | - | 0 W/m² | - |
| 1777617007 | 6.67° C | 70% | 1015.3 hPa | 0 mm | - | 0 W/m² | - |
| 1777616100 | 6.67° C | 69% | 1015.2 hPa | 0 mm | - | 0 W/m² | - |
| 1777615197 | 7.78° C | 67% | 1015.1 hPa | 0 mm | - | 0 W/m² | - |
| 1777614295 | 7.78° C | 67% | 1014.9 hPa | 0 mm | - | 0 W/m² | - |
| 1777613396 | 7.78° C | 69% | 1014.9 hPa | 0 mm | - | 0 W/m² | - |
| 1777612491 | 8.33° C | 70% | 1014.9 hPa | 0 mm | - | 0 W/m² | - |
| 1777611584 | 8.33° C | 70% | 1014.7 hPa | 0 mm | - | 0 W/m² | - |
| 1777610672 | 7.78° C | 74% | 1014.6 hPa | 0 mm | - | 0 W/m² | - |
| 1777609768 | 7.78° C | 79% | 1014.6 hPa | 0 mm | - | 0 W/m² | - |
| 1777608868 | 7.22° C | 83% | 1014.5 hPa | 0 mm | - | 0 W/m² | - |
| 1777607967 | 7.22° C | 82% | 1014.5 hPa | 0 mm | - | 0 W/m² | - |
| 1777607466 | 7.22° C | 81% | 1014.5 hPa | 0 mm | - | 0 W/m² | - |
| 1777606143 | 7.22° C | 80% | 1014.6 hPa | 0 mm | - | 0 W/m² | - |
| 1777605242 | 7.78° C | 79% | 1014.7 hPa | 0 mm | - | 0 W/m² | - |
| 1777604336 | 8.33° C | 78% | 1014.8 hPa | 0 mm | - | 0 W/m² | - |
| 1777603414 | 8.89° C | 76% | 1014.7 hPa | 0 mm | - | 0 W/m² | - |
| 1777602513 | 9.44° C | 75% | 1014.5 hPa | 0 mm | - | 0 W/m² | - |
* Rain latest hour (hover to see other rain measurements)
** Current wind speed in m/s (hover to see current wind gust speed)